createdAt,value
2023-02-17T00:01:31.526Z,8.15
2023-02-17T00:04:00.275Z,7.05
2023-02-17T00:06:29.642Z,8.00
2023-02-17T00:08:58.227Z,6.85
2023-02-17T00:11:29.242Z,5.85
2023-02-17T00:13:57.980Z,4.95
2023-02-17T00:16:28.006Z,7.22
2023-02-17T00:19:01.589Z,6.57
2023-02-17T00:21:32.161Z,6.50
2023-02-17T00:24:00.400Z,6.80
2023-02-17T00:26:27.969Z,7.82
2023-02-17T00:28:59.128Z,7.90
2023-02-17T00:31:26.753Z,6.75
2023-02-17T00:33:56.116Z,8.63
2023-02-17T00:36:24.644Z,9.20
2023-02-17T00:38:53.771Z,7.75
2023-02-17T00:41:22.964Z,6.50
2023-02-17T00:43:50.529Z,7.57
2023-02-17T00:46:18.696Z,7.05
2023-02-17T00:48:47.002Z,7.95
2023-02-17T00:51:15.567Z,7.80
2023-02-17T00:53:43.916Z,7.72
2023-02-17T00:56:12.295Z,8.77
2023-02-17T00:58:41.456Z,8.65
2023-02-17T01:01:10.086Z,8.10
2023-02-17T01:03:42.280Z,7.85
2023-02-17T01:06:15.417Z,8.18
2023-02-17T01:08:43.001Z,7.55
2023-02-17T01:11:18.039Z,6.50
2023-02-17T01:13:46.432Z,6.33
2023-02-17T01:16:19.779Z,5.65
2023-02-17T01:18:47.593Z,5.60
2023-02-17T01:21:33.894Z,4.72
2023-02-17T01:24:05.531Z,4.40
2023-02-17T01:26:35.186Z,4.25
2023-02-17T01:29:04.184Z,3.53
2023-02-17T01:31:31.935Z,3.30
2023-02-17T01:34:02.111Z,3.20
2023-02-17T01:36:29.717Z,3.22
2023-02-17T01:38:57.326Z,2.63
2023-02-17T01:41:27.168Z,2.20
2023-02-17T01:44:13.841Z,2.25
2023-02-17T01:46:43.529Z,1.30
2023-02-17T01:49:26.584Z,1.00
2023-02-17T01:52:20.404Z,1.08
2023-02-17T01:54:50.155Z,0.55
2023-02-17T01:57:22.116Z,0.52
2023-02-17T01:59:50.030Z,0.40
2023-02-17T02:02:18.403Z,0.20
2023-02-17T02:04:49.338Z,0.30
2023-02-17T02:07:22.612Z,0.40
2023-02-17T02:09:53.841Z,0.35
2023-02-17T02:12:28.175Z,0.20
2023-02-17T02:14:59.420Z,0.30
2023-02-17T02:17:44.371Z,0.30
2023-02-17T02:20:29.912Z,0.30
2023-02-17T02:23:22.707Z,0.20
2023-02-17T02:26:27.188Z,0.47
2023-02-17T02:29:19.677Z,0.32
2023-02-17T02:32:28.914Z,0.35
2023-02-17T02:35:05.996Z,0.40
2023-02-17T02:37:39.653Z,0.30
2023-02-17T02:40:10.285Z,0.30
2023-02-17T02:42:40.670Z,0.30
2023-02-17T02:45:10.471Z,0.30
2023-02-17T02:47:51.640Z,0.30
2023-02-17T02:50:56.933Z,0.28
2023-02-17T02:54:03.358Z,0.35
2023-02-17T02:56:50.101Z,0.20
2023-02-17T02:59:20.704Z,0.20
2023-02-17T03:01:54.550Z,0.20
2023-02-17T03:04:37.994Z,0.20
2023-02-17T03:07:47.339Z,0.20
2023-02-17T03:10:15.650Z,0.25
2023-02-17T03:12:44.035Z,0.20
2023-02-17T03:15:18.158Z,0.20
2023-02-17T03:17:45.763Z,0.28
2023-02-17T03:20:14.812Z,0.20
2023-02-17T03:22:47.351Z,0.20
2023-02-17T03:25:16.831Z,0.38
2023-02-17T03:27:44.966Z,0.25
2023-02-17T03:30:13.297Z,0.40
2023-02-17T03:32:41.761Z,0.22
2023-02-17T03:35:09.692Z,0.20
2023-02-17T03:37:37.313Z,0.30
2023-02-17T03:40:06.724Z,0.25
2023-02-17T03:42:34.304Z,0.20
2023-02-17T03:45:01.848Z,0.25
2023-02-17T03:47:29.297Z,0.20
2023-02-17T03:49:56.788Z,0.38
2023-02-17T03:52:24.282Z,0.13
2023-02-17T03:54:52.660Z,0.20
2023-02-17T03:57:20.184Z,0.20
2023-02-17T03:59:47.853Z,0.38
2023-02-17T04:02:15.399Z,0.22
2023-02-17T04:04:43.137Z,0.20
2023-02-17T04:07:10.613Z,0.28
2023-02-17T04:09:38.084Z,0.20
2023-02-17T04:12:05.733Z,0.30
2023-02-17T04:14:33.293Z,0.20
2023-02-17T04:17:00.917Z,0.30
2023-02-17T04:19:28.414Z,0.30
2023-02-17T04:21:55.902Z,0.30
2023-02-17T04:24:23.471Z,0.20
2023-02-17T04:26:50.981Z,0.28
2023-02-17T04:29:18.597Z,0.20
2023-02-17T04:31:46.199Z,0.22
2023-02-17T04:34:13.763Z,0.17
2023-02-17T04:36:43.422Z,0.20
2023-02-17T04:39:12.026Z,0.45
2023-02-17T04:41:39.669Z,0.22
2023-02-17T04:44:07.354Z,0.30
2023-02-17T04:46:34.852Z,0.60
2023-02-17T04:49:02.403Z,0.60
2023-02-17T04:51:29.895Z,0.60
2023-02-17T04:53:57.424Z,0.80
2023-02-17T04:56:24.920Z,0.47
2023-02-17T04:58:52.491Z,0.82
2023-02-17T05:01:19.914Z,0.85
2023-02-17T05:03:47.404Z,1.40
2023-02-17T05:06:15.081Z,1.40
2023-02-17T05:08:43.099Z,1.42
2023-02-17T05:11:10.671Z,1.40
2023-02-17T05:13:38.129Z,1.60
2023-02-17T05:16:05.983Z,1.40
2023-02-17T05:18:33.733Z,1.45
2023-02-17T05:21:01.244Z,1.30
2023-02-17T05:23:28.687Z,1.30
2023-02-17T05:25:56.688Z,1.90
2023-02-17T05:28:24.311Z,1.70
2023-02-17T05:30:51.809Z,2.45
2023-02-17T05:33:19.412Z,2.28
2023-02-17T05:35:47.007Z,2.13
2023-02-17T05:38:14.521Z,1.80
2023-02-17T05:40:41.993Z,2.47
2023-02-17T05:43:09.501Z,2.53
2023-02-17T05:45:37.114Z,2.40
2023-02-17T05:48:04.745Z,2.83
2023-02-17T05:50:32.217Z,2.88
2023-02-17T05:53:03.692Z,2.97
2023-02-17T05:55:31.235Z,2.70
2023-02-17T05:57:58.818Z,2.40
2023-02-17T06:00:26.449Z,2.28
2023-02-17T06:02:53.954Z,2.42
2023-02-17T06:05:21.552Z,2.50
2023-02-17T06:07:49.125Z,2.22
2023-02-17T06:10:16.719Z,2.42
2023-02-17T06:12:44.188Z,2.58
2023-02-17T06:15:11.923Z,2.55
2023-02-17T06:17:39.684Z,1.50
2023-02-17T06:20:08.117Z,1.52
2023-02-17T06:22:35.839Z,1.50
2023-02-17T06:25:03.498Z,2.00
2023-02-17T06:27:31.206Z,1.80
2023-02-17T06:29:58.770Z,1.58
2023-02-17T06:32:26.472Z,1.23
2023-02-17T06:34:53.956Z,1.42
2023-02-17T06:37:21.596Z,1.13
2023-02-17T06:39:49.074Z,0.98
2023-02-17T06:42:16.841Z,0.70
2023-02-17T06:44:44.258Z,0.93
2023-02-17T06:47:11.876Z,1.33
2023-02-17T06:49:40.901Z,1.33
2023-02-17T06:52:08.665Z,0.90
2023-02-17T06:54:36.076Z,1.13
2023-02-17T06:57:03.837Z,0.52
2023-02-17T06:59:33.824Z,0.75
2023-02-17T07:02:02.570Z,1.00
2023-02-17T07:04:30.380Z,1.00
2023-02-17T07:06:57.917Z,0.75
2023-02-17T07:09:25.415Z,1.05
2023-02-17T07:11:53.558Z,0.80
2023-02-17T07:14:21.960Z,0.60
2023-02-17T07:16:51.450Z,0.70
2023-02-17T07:19:19.458Z,0.70
2023-02-17T07:21:47.525Z,0.88
2023-02-17T07:24:15.083Z,0.77
2023-02-17T07:26:42.922Z,0.60
2023-02-17T07:29:10.666Z,0.63
2023-02-17T07:31:38.188Z,0.63
2023-02-17T07:34:05.792Z,0.50
2023-02-17T07:36:33.451Z,0.50
2023-02-17T07:39:00.952Z,0.50
2023-02-17T07:41:28.805Z,0.50
2023-02-17T07:43:57.774Z,0.68
2023-02-17T07:46:26.793Z,0.30
2023-02-17T07:48:55.029Z,0.70
2023-02-17T07:51:23.710Z,0.47
2023-02-17T07:53:52.196Z,0.43
2023-02-17T07:56:21.731Z,0.40
2023-02-17T07:58:50.174Z,0.47
2023-02-17T08:01:20.614Z,0.43
2023-02-17T08:03:49.031Z,0.30
2023-02-17T08:06:22.523Z,0.40
2023-02-17T08:09:10.120Z,0.45
2023-02-17T08:11:56.452Z,0.30
2023-02-17T08:14:25.966Z,0.50
2023-02-17T08:16:54.115Z,0.65
2023-02-17T08:19:22.371Z,0.45
2023-02-17T08:21:50.058Z,0.70
2023-02-17T08:24:19.699Z,0.70
2023-02-17T08:26:48.534Z,1.20
2023-02-17T08:29:16.629Z,0.60
2023-02-17T08:31:44.703Z,0.70
2023-02-17T08:34:13.728Z,0.77
2023-02-17T08:36:41.542Z,0.70
2023-02-17T08:39:13.285Z,0.65
2023-02-17T08:41:42.350Z,1.00
2023-02-17T08:44:13.973Z,0.50
2023-02-17T08:46:43.131Z,0.80
2023-02-17T08:49:11.228Z,0.75
2023-02-17T08:51:39.105Z,0.80
2023-02-17T08:54:08.931Z,0.70
2023-02-17T08:56:37.824Z,0.60
2023-02-17T08:59:06.809Z,0.90
2023-02-17T09:01:35.478Z,0.82
2023-02-17T09:04:07.667Z,0.63
2023-02-17T09:06:47.400Z,0.70
2023-02-17T09:09:17.520Z,0.75
2023-02-17T09:11:45.556Z,0.90
2023-02-17T09:14:13.270Z,0.73
2023-02-17T09:16:41.724Z,1.10
2023-02-17T09:19:09.310Z,0.82
2023-02-17T09:21:37.168Z,1.30
2023-02-17T09:24:05.058Z,0.70
2023-02-17T09:26:35.107Z,0.70
2023-02-17T09:29:04.086Z,0.95
2023-02-17T09:31:32.182Z,0.77
2023-02-17T09:34:00.032Z,0.73
2023-02-17T09:36:30.706Z,0.98
2023-02-17T09:38:58.535Z,0.88
2023-02-17T09:41:39.333Z,0.80
2023-02-17T09:44:18.794Z,0.50
2023-02-17T09:47:02.071Z,0.90
2023-02-17T09:50:08.243Z,1.00
2023-02-17T09:52:41.479Z,1.08
2023-02-17T09:55:28.211Z,1.05
2023-02-17T09:58:15.265Z,1.33
2023-02-17T10:00:53.693Z,1.40
2023-02-17T10:03:31.234Z,1.45
2023-02-17T10:06:10.900Z,1.40
2023-02-17T10:08:48.584Z,0.85
2023-02-17T10:11:36.346Z,0.98
2023-02-17T10:14:14.141Z,1.02
2023-02-17T10:16:49.956Z,0.90
2023-02-17T10:22:17.902Z,0.85
2023-02-17T10:24:45.456Z,0.88
2023-02-17T10:27:36.606Z,0.85
2023-02-17T10:30:42.263Z,1.17
2023-02-17T10:33:38.195Z,0.90
2023-02-17T10:36:12.194Z,0.73
2023-02-17T10:38:54.234Z,0.73
2023-02-17T10:41:27.050Z,0.82
2023-02-17T10:43:55.185Z,0.75
2023-02-17T10:46:29.298Z,0.60
2023-02-17T10:48:58.713Z,0.65
2023-02-17T10:51:31.282Z,0.80
2023-02-17T10:54:13.081Z,0.80
2023-02-17T10:56:46.925Z,0.85
2023-02-17T10:59:26.257Z,1.00
2023-02-17T11:02:00.711Z,0.90
2023-02-17T11:04:28.256Z,0.90
2023-02-17T11:06:58.432Z,0.80
2023-02-17T11:09:32.082Z,1.13
2023-02-17T11:12:11.562Z,0.55
2023-02-17T11:14:48.679Z,1.00
2023-02-17T11:17:35.269Z,0.90
2023-02-17T11:22:45.857Z,0.90
2023-02-17T11:25:30.156Z,1.15
2023-02-17T11:28:00.466Z,0.77
2023-02-17T11:30:30.961Z,0.98
2023-02-17T11:32:58.601Z,0.70
2023-02-17T11:35:38.457Z,1.10
2023-02-17T11:38:13.297Z,0.90
2023-02-17T11:40:43.502Z,0.70
2023-02-17T11:43:19.175Z,0.93
2023-02-17T11:45:52.588Z,1.20
2023-02-17T11:50:40.852Z,0.80
2023-02-17T11:53:46.817Z,0.93
2023-02-17T11:56:19.343Z,0.85
2023-02-17T11:59:05.331Z,1.15
2023-02-17T12:01:54.132Z,1.08
2023-02-17T12:04:25.740Z,1.25
2023-02-17T12:07:11.948Z,0.90
2023-02-17T12:09:45.481Z,0.90
2023-02-17T12:12:21.596Z,0.90
2023-02-17T12:15:16.232Z,0.90
2023-02-17T12:18:06.213Z,1.25
2023-02-17T12:20:33.716Z,1.20
2023-02-17T12:23:19.451Z,1.08
2023-02-17T12:25:49.648Z,1.03
2023-02-17T12:28:41.200Z,1.40
2023-02-17T12:31:28.929Z,1.10
2023-02-17T12:34:17.898Z,1.17
2023-02-17T12:36:47.095Z,0.75
2023-02-17T12:39:43.378Z,1.02
2023-02-17T12:42:17.710Z,1.00
2023-02-17T12:44:51.020Z,1.00
2023-02-17T12:47:47.948Z,0.98
2023-02-17T12:52:57.763Z,0.85
2023-02-17T12:55:30.895Z,0.88
2023-02-17T12:58:07.343Z,0.80
2023-02-17T13:00:48.413Z,1.00
2023-02-17T13:03:16.072Z,1.50
2023-02-17T13:05:51.537Z,1.10
2023-02-17T13:08:30.562Z,1.00
2023-02-17T13:11:25.338Z,1.10
2023-02-17T13:13:52.841Z,1.00
2023-02-17T13:16:20.317Z,1.05
2023-02-17T13:18:51.594Z,0.93
2023-02-17T13:21:32.389Z,1.27
2023-02-17T13:24:01.901Z,0.73
2023-02-17T13:26:34.627Z,1.13
2023-02-17T13:29:25.935Z,0.95
2023-02-17T13:31:59.985Z,1.00
2023-02-17T13:34:39.355Z,1.23
2023-02-17T13:37:18.858Z,1.00
2023-02-17T13:39:46.828Z,1.10
2023-02-17T13:42:29.365Z,0.82
2023-02-17T13:44:58.523Z,1.25
2023-02-17T13:47:37.879Z,1.10
2023-02-17T13:50:06.586Z,0.77
2023-02-17T13:52:34.089Z,1.10
2023-02-17T13:55:05.863Z,1.00
2023-02-17T13:57:35.951Z,0.90
2023-02-17T14:00:19.347Z,1.00
2023-02-17T14:02:54.298Z,1.23
2023-02-17T14:05:28.644Z,1.30
2023-02-17T14:08:12.053Z,0.75
2023-02-17T14:10:40.034Z,0.93
2023-02-17T14:13:10.665Z,0.90
2023-02-17T14:15:38.793Z,1.33
2023-02-17T14:18:14.265Z,1.05
2023-02-17T14:20:41.926Z,1.02
2023-02-17T14:23:12.709Z,1.30
2023-02-17T14:25:51.584Z,0.90
2023-02-17T14:28:25.920Z,1.00
2023-02-17T14:30:54.058Z,1.33
2023-02-17T14:33:24.710Z,0.90
2023-02-17T14:36:02.834Z,0.77
2023-02-17T14:38:35.306Z,0.80
2023-02-17T14:41:04.254Z,0.98
2023-02-17T14:43:31.797Z,1.00
2023-02-17T14:45:59.512Z,1.17
2023-02-17T14:48:28.007Z,1.52
2023-02-17T14:50:58.831Z,1.00
2023-02-17T14:53:36.448Z,1.05
2023-02-17T14:56:27.797Z,1.25
2023-02-17T14:58:55.588Z,0.80
2023-02-17T15:01:24.441Z,1.08
2023-02-17T15:03:53.322Z,1.10
2023-02-17T15:06:27.094Z,0.90
2023-02-17T15:08:56.368Z,1.10
2023-02-17T15:11:30.307Z,1.20
2023-02-17T15:13:58.253Z,0.98
2023-02-17T15:16:25.791Z,1.10
2023-02-17T15:18:53.300Z,1.30
2023-02-17T15:21:29.900Z,1.08
2023-02-17T15:23:59.586Z,1.08
2023-02-17T15:26:30.448Z,1.00
2023-02-17T15:28:58.880Z,0.90
2023-02-17T15:31:29.781Z,1.05
2023-02-17T15:34:01.148Z,0.90
2023-02-17T15:36:29.147Z,1.00
2023-02-17T15:38:56.627Z,1.33
2023-02-17T15:41:27.083Z,1.00
2023-02-17T15:43:56.955Z,1.20
2023-02-17T15:46:31.177Z,1.23
2023-02-17T15:48:59.614Z,1.00
2023-02-17T15:51:27.205Z,1.00
2023-02-17T15:53:54.809Z,1.00
2023-02-17T15:56:26.307Z,1.00
2023-02-17T15:58:54.549Z,0.80
2023-02-17T16:01:28.311Z,0.75
2023-02-17T16:03:57.440Z,0.63
2023-02-17T16:06:26.637Z,0.60
2023-02-17T16:08:54.490Z,0.60
2023-02-17T16:11:22.979Z,0.70
2023-02-17T16:13:52.039Z,0.70
2023-02-17T16:16:38.715Z,1.17
2023-02-17T16:19:06.285Z,0.90
2023-02-17T16:21:33.829Z,0.93
2023-02-17T16:24:01.414Z,0.80
2023-02-17T16:26:35.458Z,0.85
2023-02-17T16:29:10.279Z,0.93
2023-02-17T16:31:37.900Z,0.95
2023-02-17T16:34:05.579Z,0.77
2023-02-17T16:36:35.689Z,0.75
2023-02-17T16:39:12.827Z,0.80
2023-02-17T16:41:40.706Z,1.00
2023-02-17T16:44:11.890Z,1.10
2023-02-17T16:46:44.878Z,1.00
2023-02-17T16:49:33.989Z,0.98
2023-02-17T16:52:07.487Z,1.00
2023-02-17T16:54:35.844Z,1.55
2023-02-17T16:57:04.100Z,0.88
2023-02-17T16:59:31.732Z,1.10
2023-02-17T17:01:59.205Z,0.80
2023-02-17T17:04:26.700Z,1.02
2023-02-17T17:06:54.193Z,1.13
2023-02-17T17:09:25.906Z,1.10
2023-02-17T17:11:53.457Z,1.10
2023-02-17T17:14:21.908Z,0.90
2023-02-17T17:16:55.309Z,0.90
2023-02-17T17:19:23.139Z,1.08
2023-02-17T17:21:51.010Z,0.95
2023-02-17T17:24:18.633Z,1.15
2023-02-17T17:26:48.135Z,1.08
2023-02-17T17:29:17.496Z,1.15
2023-02-17T17:31:45.346Z,1.20
2023-02-17T17:34:13.035Z,1.20
2023-02-17T17:36:45.838Z,1.05
2023-02-17T17:39:19.352Z,1.30
2023-02-17T17:41:47.339Z,1.20
2023-02-17T17:44:15.477Z,1.15
2023-02-17T17:46:43.282Z,0.98
2023-02-17T17:49:14.076Z,1.38
2023-02-17T17:51:41.902Z,1.08
2023-02-17T17:54:10.621Z,0.93
2023-02-17T17:56:42.594Z,1.35
2023-02-17T17:59:11.566Z,1.42
2023-02-17T18:01:39.183Z,1.20
2023-02-17T18:04:08.858Z,1.10
2023-02-17T18:06:43.349Z,1.27
2023-02-17T18:09:30.296Z,1.27
2023-02-17T18:12:04.581Z,1.15
2023-02-17T18:14:32.478Z,1.30
2023-02-17T18:17:00.141Z,1.30
2023-02-17T18:19:29.438Z,0.93
2023-02-17T18:21:57.022Z,1.17
2023-02-17T18:24:24.598Z,1.17
2023-02-17T18:26:52.351Z,1.58
2023-02-17T18:29:20.517Z,1.30
2023-02-17T18:31:48.177Z,1.25
2023-02-17T18:34:15.833Z,0.82
2023-02-17T18:36:43.404Z,1.45
2023-02-17T18:39:10.941Z,1.70
2023-02-17T18:41:38.512Z,1.35
2023-02-17T18:44:06.164Z,1.63
2023-02-17T18:46:34.005Z,2.55
2023-02-17T18:49:01.588Z,2.00
2023-02-17T18:51:29.108Z,1.65
2023-02-17T18:53:58.821Z,1.60
2023-02-17T18:56:29.693Z,1.48
2023-02-17T18:58:57.643Z,1.10
2023-02-17T19:01:25.138Z,1.27
2023-02-17T19:03:53.068Z,1.73
2023-02-17T19:06:23.762Z,2.05
2023-02-17T19:08:51.534Z,2.10
2023-02-17T19:11:21.778Z,2.22
2023-02-17T19:13:50.007Z,2.88
2023-02-17T19:16:24.469Z,2.28
2023-02-17T19:18:52.793Z,1.83
2023-02-17T19:21:21.317Z,1.83
2023-02-17T19:23:49.803Z,2.00
2023-02-17T19:26:18.874Z,1.45
2023-02-17T19:28:46.978Z,1.35
2023-02-17T19:31:17.510Z,1.83
2023-02-17T19:33:45.903Z,1.55
2023-02-17T19:36:19.721Z,1.45
2023-02-17T19:38:48.480Z,1.20
2023-02-17T19:41:20.334Z,1.17
2023-02-17T19:43:48.208Z,1.63
2023-02-17T19:46:19.931Z,1.73
2023-02-17T19:48:47.455Z,2.47
2023-02-17T19:51:14.992Z,2.50
2023-02-17T19:53:43.992Z,3.20
2023-02-17T19:56:25.086Z,2.53
2023-02-17T19:58:53.178Z,1.77
2023-02-17T20:01:26.665Z,1.70
2023-02-17T20:03:55.591Z,2.15
2023-02-17T20:06:27.098Z,1.70
2023-02-17T20:09:03.143Z,1.33
2023-02-17T20:11:32.032Z,1.42
2023-02-17T20:14:01.272Z,2.03
2023-02-17T20:17:58.293Z,1.70
2023-02-17T20:20:25.974Z,1.65
2023-02-17T20:22:53.485Z,1.48
2023-02-17T20:25:21.190Z,2.17
2023-02-17T20:27:48.674Z,2.25
2023-02-17T20:30:16.357Z,2.30
2023-02-17T20:32:43.824Z,2.00
2023-02-17T20:35:14.271Z,2.13
2023-02-17T20:37:41.880Z,2.13
2023-02-17T20:40:09.608Z,2.28
2023-02-17T20:42:37.115Z,2.97
2023-02-17T20:45:05.254Z,2.65
2023-02-17T20:47:32.837Z,2.22
2023-02-17T20:50:00.355Z,1.90
2023-02-17T20:52:27.848Z,1.73
2023-02-17T20:54:55.358Z,1.77
2023-02-17T20:57:23.484Z,1.83
2023-02-17T20:59:50.886Z,1.55
2023-02-17T21:02:18.451Z,1.67
2023-02-17T21:04:46.005Z,1.42
2023-02-17T21:07:13.515Z,1.60
2023-02-17T21:09:41.018Z,1.75
2023-02-17T21:12:08.579Z,1.75
2023-02-17T21:14:36.023Z,2.45
2023-02-17T21:17:03.603Z,4.10
2023-02-17T21:19:31.085Z,3.88
2023-02-17T21:21:59.133Z,3.10
2023-02-17T21:24:26.702Z,3.33
2023-02-17T21:26:54.174Z,3.13
2023-02-17T21:29:21.683Z,3.10
2023-02-17T21:31:49.586Z,4.75
2023-02-17T21:34:17.263Z,4.03
2023-02-17T21:36:45.032Z,3.50
2023-02-17T21:39:13.129Z,2.90
2023-02-17T21:41:42.220Z,2.95
2023-02-17T21:44:32.046Z,3.15
2023-02-17T21:46:59.601Z,3.25
2023-02-17T21:49:27.179Z,3.20
2023-02-17T21:51:57.468Z,3.17
2023-02-17T21:54:25.093Z,3.00
2023-02-17T21:56:52.590Z,2.15
2023-02-17T21:59:20.095Z,2.60
2023-02-17T22:01:47.838Z,2.38
2023-02-17T22:04:15.389Z,14.02
2023-02-17T22:06:43.405Z,4.50
2023-02-17T22:09:14.768Z,3.40
2023-02-17T22:11:44.171Z,3.33
2023-02-17T22:14:17.555Z,2.40
2023-02-17T22:16:46.166Z,2.00
2023-02-17T22:19:17.072Z,2.40
2023-02-17T22:21:44.891Z,2.60
2023-02-17T22:24:13.205Z,2.15
2023-02-17T22:26:41.219Z,2.75
2023-02-17T22:29:09.034Z,2.38
2023-02-17T22:31:36.785Z,2.13
2023-02-17T22:34:07.896Z,2.20
2023-02-17T22:36:36.977Z,2.28
2023-02-17T22:39:06.539Z,2.13
2023-02-17T22:41:35.100Z,2.60
2023-02-17T22:44:03.322Z,2.28
2023-02-17T22:46:31.830Z,2.25
2023-02-17T22:49:00.056Z,2.25
2023-02-17T22:51:34.760Z,2.60
2023-02-17T22:54:02.832Z,3.05
2023-02-17T22:56:31.119Z,2.45
2023-02-17T22:59:01.690Z,2.22
2023-02-17T23:01:31.068Z,2.60
2023-02-17T23:03:59.053Z,2.38
2023-02-17T23:06:30.457Z,2.17
2023-02-17T23:08:59.062Z,2.67
2023-02-17T23:11:47.965Z,3.00
2023-02-17T23:14:17.939Z,2.40
2023-02-17T23:16:45.712Z,2.30
2023-02-17T23:19:17.209Z,3.00
2023-02-17T23:21:51.031Z,2.25
2023-02-17T23:24:20.466Z,2.13
2023-02-17T23:26:49.097Z,2.10
2023-02-17T23:29:17.154Z,1.92
2023-02-17T23:31:45.215Z,2.30
2023-02-17T23:34:14.864Z,2.20
2023-02-17T23:36:44.203Z,1.95
2023-02-17T23:39:12.329Z,1.90
2023-02-17T23:41:40.313Z,2.22
2023-02-17T23:44:09.684Z,2.70
2023-02-17T23:46:38.360Z,2.20
2023-02-17T23:49:06.165Z,3.10
2023-02-17T23:51:33.759Z,3.70
2023-02-17T23:54:01.449Z,3.58
2023-02-17T23:56:33.140Z,2.83
2023-02-17T23:59:02.227Z,2.45
